Time;durP1;ratioP1;P1;durP2;ratioP2;P2;SDS_P1;SDS_P2;PMS_P1;PMS_P2;Temp;Humidity;BMP_temperature;BMP_pressure;BME280_temperature;BME280_humidity;BME280_pressure;Samples;Min_cycle;Max_cycle;Signal;HPM_P1;HPM_P2
2022/06/15 00:01:42;;;;;;;140.02;72.45;;;22.20;56.30;;;;;;6195469;28;20489;-75
2022/06/15 00:04:43;;;;;;;140.13;71.72;;;22.20;55.50;;;;;;6195470;28;20024;-76
2022/06/15 00:07:43;;;;;;;134.85;66.82;;;22.20;55.50;;;;;;6197982;28;20049;-76
2022/06/15 00:10:44;;;;;;;130.88;66.35;;;22.20;55.50;;;;;;6218565;28;20025;-76
2022/06/15 00:13:45;;;;;;;127.75;65.32;;;22.20;55.50;;;;;;6205872;28;20544;-76
2022/06/15 00:16:46;;;;;;;123.15;64.25;;;22.20;55.50;;;;;;6194582;28;20026;-75
2022/06/15 00:19:46;;;;;;;126.80;63.78;;;22.20;55.60;;;;;;6198790;28;20037;-76
2022/06/15 00:22:47;;;;;;;128.15;64.13;;;22.20;55.50;;;;;;6214333;28;20028;-76
2022/06/15 00:25:50;;;;;;;119.03;60.97;;;22.20;55.50;;;;;;6193785;28;20034;-76
2022/06/15 00:28:51;;;;;;;110.43;59.25;;;22.20;55.50;;;;;;6205798;28;20076;-76
2022/06/15 00:31:52;;;;;;;114.30;60.88;;;22.20;55.50;;;;;;6205399;28;20033;-76
2022/06/15 00:34:52;;;;;;;105.55;56.63;;;22.20;55.50;;;;;;6195409;28;20614;-76
2022/06/15 00:37:53;;;;;;;115.75;57.75;;;22.20;55.50;;;;;;6195692;28;20124;-76
2022/06/15 00:40:54;;;;;;;102.45;53.95;;;22.20;55.50;;;;;;6217547;28;20038;-77
2022/06/15 00:43:58;;;;;;;111.68;57.08;;;22.20;55.50;;;;;;6208694;28;20026;-76
2022/06/15 00:47:11;;;;;;;102.10;53.30;;;22.20;55.50;;;;;;6195011;28;20396;-76
2022/06/15 00:50:20;;;;;;;97.13;53.63;;;22.20;55.60;;;;;;6215652;28;20026;-76
2022/06/15 00:53:21;;;;;;;100.45;53.33;;;22.20;55.60;;;;;;6220605;28;20030;-76
2022/06/15 00:56:22;;;;;;;100.47;53.50;;;22.20;55.60;;;;;;6181884;28;20030;-76
2022/06/15 00:59:35;;;;;;;101.22;53.28;;;22.20;55.60;;;;;;6211230;28;20017;-76
2022/06/15 01:02:37;;;;;;;87.00;49.35;;;22.20;55.60;;;;;;6205563;28;20038;-77
2022/06/15 01:05:52;;;;;;;94.88;50.95;;;22.20;55.60;;;;;;6201937;28;20025;-76
2022/06/15 01:09:21;;;;;;;88.25;46.90;;;22.10;55.50;;;;;;6215599;28;20033;-76
2022/06/15 01:12:46;;;;;;;88.38;47.53;;;22.20;55.60;;;;;;6198716;28;20627;-76
2022/06/15 01:15:55;;;;;;;86.07;45.83;;;22.20;55.60;;;;;;6221010;28;20036;-76
2022/06/15 01:19:17;;;;;;;86.53;45.85;;;22.20;55.60;;;;;;6217027;28;20473;-77
2022/06/15 01:22:29;;;;;;;81.65;45.90;;;22.20;55.60;;;;;;6198088;28;20118;-76
2022/06/15 01:25:33;;;;;;;81.95;42.17;;;22.20;55.60;;;;;;6214942;28;20026;-77
2022/06/15 01:28:53;;;;;;;72.05;41.95;;;22.20;55.60;;;;;;6221108;28;20477;-75
2022/06/15 01:32:16;;;;;;;78.07;42.45;;;22.10;55.50;;;;;;6181362;28;20031;-76
2022/06/15 01:35:51;;;;;;;72.50;41.42;;;22.20;55.60;;;;;;6199243;28;20029;-77
2022/06/15 01:39:23;;;;;;;77.93;41.35;;;22.10;55.50;;;;;;6199567;28;20511;-77
2022/06/15 01:42:55;;;;;;;74.72;41.90;;;22.10;55.50;;;;;;6221536;28;20037;-76
2022/06/15 01:45:58;;;;;;;71.78;40.22;;;22.20;55.60;;;;;;6202437;28;20042;-77
2022/06/15 01:49:00;;;;;;;69.90;38.15;;;22.10;55.50;;;;;;6181723;28;20029;-77
2022/06/15 01:52:03;;;;;;;70.50;39.13;;;22.10;55.60;;;;;;6221324;28;20014;-77
2022/06/15 01:55:15;;;;;;;67.97;38.03;;;22.20;55.60;;;;;;6211917;28;20021;-77
2022/06/15 01:58:18;;;;;;;61.03;34.67;;;22.20;55.60;;;;;;6196024;28;20429;-76
2022/06/15 02:01:35;;;;;;;61.17;35.47;;;22.20;55.60;;;;;;6197009;28;20030;-77
2022/06/15 02:04:57;;;;;;;60.70;35.45;;;22.20;55.60;;;;;;6202040;28;20084;-76
2022/06/15 02:08:03;;;;;;;57.58;32.38;;;22.20;55.60;;;;;;6205552;28;20392;-76
2022/06/15 02:11:12;;;;;;;59.40;32.67;;;22.20;55.60;;;;;;6189852;28;20030;-76
2022/06/15 02:14:35;;;;;;;56.30;33.13;;;22.10;55.50;;;;;;6198955;28;20097;-75
2022/06/15 02:17:42;;;;;;;59.47;33.40;;;22.10;55.50;;;;;;6222922;28;20029;-76
2022/06/15 02:20:51;;;;;;;58.20;32.72;;;22.20;55.60;;;;;;6211301;28;20189;-76
2022/06/15 02:23:56;;;;;;;54.35;32.22;;;22.10;55.50;;;;;;6198424;28;20033;-76
2022/06/15 02:26:57;;;;;;;;;;;22.10;55.50;;;;;;6219311;28;20504;-75
2022/06/15 02:30:05;;;;;;;51.22;29.30;;;22.10;55.50;;;;;;6218860;28;19909;-76
2022/06/15 02:33:26;;;;;;;51.35;29.38;;;22.10;55.50;;;;;;6195037;28;20038;-75
2022/06/15 02:36:27;;;;;;;52.78;30.55;;;22.10;55.60;;;;;;6180289;28;20062;-76
2022/06/15 02:39:28;;;;;;;56.05;30.85;;;22.10;55.60;;;;;;6197761;28;20448;-76
2022/06/15 02:42:34;;;;;;;51.30;28.65;;;22.10;55.60;;;;;;6203253;28;20566;-77
2022/06/15 02:45:38;;;;;;;46.55;27.27;;;22.10;55.50;;;;;;6214985;28;20171;-77
2022/06/15 02:48:39;;;;;;;47.17;27.92;;;22.10;55.50;;;;;;6194693;28;20030;-76
2022/06/15 02:51:57;;;;;;;44.08;26.33;;;22.10;56.20;;;;;;6212823;28;20056;-76
2022/06/15 02:54:58;;;;;;;44.05;25.20;;;22.10;55.60;;;;;;6220933;28;20037;-76
2022/06/15 02:58:11;;;;;;;47.80;26.67;;;22.10;55.60;;;;;;6196482;28;20026;-76
2022/06/15 03:01:13;;;;;;;41.13;23.88;;;22.10;55.50;;;;;;6195753;28;20121;-76
2022/06/15 03:04:14;;;;;;;46.38;26.80;;;22.10;55.60;;;;;;6197071;28;20032;-76
2022/06/15 03:07:15;;;;;;;43.08;24.95;;;22.10;55.50;;;;;;6214971;28;20384;-76
2022/06/15 03:10:16;;;;;;;42.92;24.17;;;22.10;55.50;;;;;;6220197;28;20018;-76
2022/06/15 03:13:17;;;;;;;40.40;24.00;;;22.10;55.60;;;;;;6196359;28;20034;-76
2022/06/15 03:16:18;;;;;;;42.67;24.27;;;22.10;55.50;;;;;;6205467;28;20057;-76
2022/06/15 03:19:18;;;;;;;37.05;22.50;;;22.10;55.60;;;;;;6219630;28;20022;-76
2022/06/15 03:22:19;;;;;;;37.50;22.65;;;22.10;55.50;;;;;;6185072;28;20119;-76
2022/06/15 03:25:20;;;;;;;39.70;23.27;;;22.10;55.60;;;;;;6195176;28;20089;-76
2022/06/15 03:28:21;;;;;;;36.38;22.40;;;22.10;56.20;;;;;;6220485;28;20029;-75
2022/06/15 03:31:22;;;;;;;34.63;21.20;;;22.10;55.60;;;;;;6213182;28;20561;-75
2022/06/15 03:34:23;;;;;;;34.92;21.67;;;22.10;55.60;;;;;;6195224;28;20022;-76
2022/06/15 03:37:23;;;;;;;34.58;21.45;;;22.10;55.60;;;;;;6196016;28;20097;-76
2022/06/15 03:40:24;;;;;;;35.90;21.30;;;22.10;55.60;;;;;;6196211;28;20018;-76
2022/06/15 03:43:24;;;;;;;35.80;21.13;;;22.10;55.50;;;;;;6218128;28;20038;-76
2022/06/15 03:46:25;;;;;;;34.03;20.58;;;22.10;55.60;;;;;;6214031;28;20110;-76
2022/06/15 03:49:26;;;;;;;32.78;19.92;;;22.00;55.50;;;;;;6177565;28;20532;-76
2022/06/15 03:52:27;;;;;;;30.25;18.85;;;22.10;55.60;;;;;;6206452;28;20033;-75
2022/06/15 03:55:29;;;;;;;28.35;17.98;;;22.10;55.60;;;;;;6196075;28;20480;-76
2022/06/15 03:58:29;;;;;;;29.92;18.70;;;22.10;55.50;;;;;;6216705;28;20100;-75
2022/06/15 04:01:30;;;;;;;28.75;17.95;;;22.10;55.50;;;;;;6215564;28;20684;-76
2022/06/15 04:04:31;;;;;;;31.35;18.30;;;22.10;55.60;;;;;;6196198;28;20018;-76
2022/06/15 04:10:51;;;;;;;28.40;17.90;;;22.10;55.50;;;;;;6219997;28;20061;-76
2022/06/15 04:13:51;;;;;;;27.52;17.25;;;22.10;55.60;;;;;;6197614;28;20048;-76
2022/06/15 04:16:56;;;;;;;27.15;17.33;;;22.00;55.50;;;;;;6200954;28;20021;-76
2022/06/15 04:23:19;;;;;;;27.48;16.85;;;22.10;55.50;;;;;;6204149;28;20034;-75
2022/06/15 04:26:20;;;;;;;26.42;16.52;;;22.10;55.60;;;;;;6195325;28;20034;-76
2022/06/15 04:29:21;;;;;;;26.52;16.75;;;22.00;55.50;;;;;;6217571;28;20030;-76
2022/06/15 04:32:21;;;;;;;28.73;17.25;;;22.10;55.60;;;;;;6210636;28;20029;-76
2022/06/15 04:35:22;;;;;;;23.83;15.63;;;22.10;55.50;;;;;;6193448;28;20481;-77
2022/06/15 04:38:23;;;;;;;24.95;16.00;;;22.10;55.60;;;;;;6194055;28;20160;-76
2022/06/15 04:41:24;;;;;;;22.52;14.90;;;22.10;55.50;;;;;;6193595;28;20070;-75
2022/06/15 04:44:25;;;;;;;24.25;15.77;;;22.10;55.60;;;;;;6198268;28;20026;-76
2022/06/15 04:47:25;;;;;;;24.70;15.00;;;22.10;55.50;;;;;;6212117;28;20027;-76
2022/06/15 04:50:26;;;;;;;21.27;13.95;;;22.10;55.50;;;;;;6194676;28;20428;-76
2022/06/15 04:53:27;;;;;;;22.98;14.48;;;22.00;55.40;;;;;;6207599;28;20084;-77
2022/06/15 04:56:28;;;;;;;18.45;12.98;;;22.00;55.40;;;;;;6201829;28;20451;-78
2022/06/15 05:03:26;;;;;;;23.35;13.68;;;22.10;55.50;;;;;;6206141;28;20474;-76
2022/06/15 05:06:26;;;;;;;21.33;14.02;;;22.00;55.40;;;;;;6217932;28;20282;-76
2022/06/15 05:09:27;;;;;;;22.15;13.48;;;22.10;55.50;;;;;;6198688;28;20081;-76
2022/06/15 05:12:29;;;;;;;20.60;13.85;;;22.00;55.40;;;;;;6179723;28;20022;-76
2022/06/15 05:15:29;;;;;;;20.77;13.35;;;22.00;55.50;;;;;;6219317;28;20469;-76
2022/06/15 05:18:30;;;;;;;21.00;12.77;;;22.00;55.50;;;;;;6208975;28;20031;-76
2022/06/15 05:21:31;;;;;;;19.13;12.73;;;22.00;55.50;;;;;;6195121;28;20035;-76
2022/06/15 05:24:32;;;;;;;19.92;12.48;;;22.00;55.50;;;;;;6211569;28;20022;-76
2022/06/15 05:27:34;;;;;;;18.42;12.65;;;22.00;55.50;;;;;;6216223;28;20049;-76
2022/06/15 05:30:35;;;;;;;19.23;12.20;;;22.00;55.40;;;;;;6193226;28;20026;-76
2022/06/15 05:33:36;;;;;;;18.13;11.85;;;22.00;55.50;;;;;;6195102;28;20101;-75
2022/06/15 05:36:37;;;;;;;18.15;11.73;;;22.00;55.50;;;;;;6196865;28;20058;-76
2022/06/15 05:39:38;;;;;;;15.80;11.05;;;22.00;55.40;;;;;;6216096;28;20030;-76
2022/06/15 05:42:39;;;;;;;17.83;11.35;;;22.00;55.40;;;;;;6223694;28;20117;-76
2022/06/15 05:45:39;;;;;;;15.32;10.43;;;22.00;55.50;;;;;;6198558;28;20448;-76
2022/06/15 05:48:40;;;;;;;17.02;11.20;;;22.00;55.40;;;;;;6206548;28;20060;-76
2022/06/15 05:51:41;;;;;;;15.90;10.55;;;22.00;55.40;;;;;;6223566;28;20026;-75
2022/06/15 05:54:41;;;;;;;15.88;10.35;;;22.00;55.40;;;;;;6206193;28;20440;-76
2022/06/15 05:57:42;;;;;;;16.80;11.13;;;22.00;55.40;;;;;;6195812;28;20036;-76
2022/06/15 06:00:42;;;;;;;15.38;10.68;;;22.00;55.50;;;;;;6208401;28;20084;-76
2022/06/15 06:03:43;;;;;;;17.38;10.52;;;22.00;55.40;;;;;;6224975;28;20480;-75
2022/06/15 06:06:44;;;;;;;14.48;9.20;;;22.00;55.50;;;;;;6207519;28;20032;-76
2022/06/15 06:09:45;;;;;;;17.10;10.65;;;22.00;55.40;;;;;;6208314;28;20029;-76
2022/06/15 06:12:46;;;;;;;15.05;9.70;;;22.00;55.40;;;;;;6200667;28;20073;-76
2022/06/15 06:15:46;;;;;;;15.43;9.57;;;22.00;55.40;;;;;;6221871;28;20026;-76
2022/06/15 06:18:47;;;;;;;15.25;10.13;;;22.00;55.50;;;;;;6220344;28;20030;-76
2022/06/15 06:21:48;;;;;;;14.65;10.02;;;22.00;55.50;;;;;;6200870;28;20509;-76
2022/06/15 06:24:49;;;;;;;13.48;9.05;;;22.00;55.40;;;;;;6208962;28;20041;-76
2022/06/15 06:27:50;;;;;;;11.85;8.48;;;22.00;55.50;;;;;;6221716;28;20026;-77
2022/06/15 06:30:50;;;;;;;14.38;9.52;;;22.00;55.40;;;;;;6205016;28;20037;-76
2022/06/15 06:33:52;;;;;;;13.75;9.43;;;22.00;55.40;;;;;;6182701;28;20030;-75
2022/06/15 06:36:53;;;;;;;14.57;9.18;;;22.00;55.40;;;;;;6199988;28;20112;-75
2022/06/15 06:39:55;;;;;;;13.80;9.02;;;22.00;55.50;;;;;;6210462;28;20029;-76
2022/06/15 06:42:56;;;;;;;13.70;9.38;;;22.00;55.40;;;;;;6224848;28;20412;-76
2022/06/15 06:45:57;;;;;;;13.05;8.85;;;22.00;55.40;;;;;;6205654;28;20027;-75
2022/06/15 06:48:58;;;;;;;13.80;9.27;;;22.00;55.40;;;;;;6182224;28;20078;-76
2022/06/15 06:51:58;;;;;;;13.57;9.23;;;22.00;55.40;;;;;;6224490;28;20068;-75
2022/06/15 06:54:59;;;;;;;13.38;8.65;;;22.00;56.10;;;;;;6212097;28;20022;-76
2022/06/15 06:58:01;;;;;;;13.73;8.88;;;22.00;55.40;;;;;;6199598;28;20477;-75
2022/06/15 07:01:02;;;;;;;12.88;7.82;;;22.00;55.40;;;;;;6216049;28;20040;-76
2022/06/15 07:04:03;;;;;;;12.63;8.25;;;22.00;55.40;;;;;;6223093;28;20401;-76
2022/06/15 07:07:04;;;;;;;12.80;7.95;;;22.00;55.40;;;;;;6223444;28;20389;-76
2022/06/15 07:10:06;;;;;;;11.23;8.02;;;22.00;55.40;;;;;;6215292;28;20065;-76
2022/06/15 07:13:07;;;;;;;14.00;9.07;;;22.00;55.40;;;;;;6199508;28;20034;-75
2022/06/15 07:16:11;;;;;;;11.88;7.32;;;22.00;55.40;;;;;;6214321;28;20433;-77
2022/06/15 07:19:12;;;;;;;10.43;7.38;;;22.00;55.40;;;;;;6222972;28;20030;-77
2022/06/15 07:22:12;;;;;;;11.13;7.72;;;22.00;55.40;;;;;;6198638;28;20097;-76
2022/06/15 07:25:13;;;;;;;12.68;7.78;;;22.00;55.40;;;;;;6198114;28;20454;-75
2022/06/15 07:28:15;;;;;;;10.32;7.35;;;22.00;55.40;;;;;;6198721;28;20077;-76
2022/06/15 07:31:28;;;;;;;11.48;7.13;;;22.00;55.40;;;;;;6212791;28;20029;-76
2022/06/15 07:34:28;;;;;;;9.70;6.75;;;22.00;55.40;;;;;;6130685;29;20031;-75
2022/06/15 07:37:29;;;;;;;9.80;7.03;;;22.00;55.40;;;;;;6147654;29;20564;-75
2022/06/15 07:40:30;;;;;;;9.93;6.93;;;22.00;55.40;;;;;;6147066;29;20552;-76
2022/06/15 07:43:32;;;;;;;9.88;7.30;;;22.00;55.40;;;;;;6147543;29;20031;-76
2022/06/15 07:46:33;;;;;;;10.20;7.03;;;22.00;55.40;;;;;;6146164;29;20115;-76
2022/06/15 07:52:54;;;;;;;7.60;5.82;;;22.00;55.40;;;;;;6127944;29;20079;-75
2022/06/15 07:55:56;;;;;;;10.23;7.38;;;22.00;55.40;;;;;;6145881;29;20027;-76
2022/06/15 07:58:57;;;;;;;10.05;6.65;;;22.00;55.50;;;;;;6146380;28;20489;-76
2022/06/15 08:01:58;;;;;;;8.73;6.10;;;22.00;55.40;;;;;;6146641;29;20039;-76
2022/06/15 08:04:58;;;;;;;10.30;6.93;;;22.00;55.40;;;;;;6179776;28;20041;-75
2022/06/15 08:07:59;;;;;;;9.15;6.22;;;22.00;55.40;;;;;;6222098;28;20028;-76
2022/06/15 08:11:00;;;;;;;8.00;6.40;;;22.00;55.40;;;;;;6214948;28;20396;-76
2022/06/15 08:14:01;;;;;;;10.30;6.72;;;22.00;56.10;;;;;;6197974;28;20041;-77
2022/06/15 08:17:03;;;;;;;9.00;6.43;;;22.00;55.40;;;;;;6212597;28;20022;-77
2022/06/15 08:20:18;;;;;;;9.02;5.82;;;22.00;55.40;;;;;;6222170;28;20026;-76
2022/06/15 08:23:22;;;;;;;8.20;6.03;;;22.00;55.40;;;;;;6197923;28;20026;-76
2022/06/15 08:26:27;;;;;;;9.13;6.07;;;22.00;55.40;;;;;;6197330;28;20458;-76
2022/06/15 08:29:28;;;;;;;8.50;5.97;;;22.00;55.40;;;;;;6196636;28;20030;-77
2022/06/15 08:32:29;;;;;;;9.77;6.28;;;22.00;56.10;;;;;;6195799;28;20106;-76
2022/06/15 08:35:30;;;;;;;6.70;5.40;;;22.00;55.40;;;;;;6197237;28;20063;-76
2022/06/15 08:38:30;;;;;;;8.25;5.47;;;22.00;55.40;;;;;;6221712;28;20049;-75
2022/06/15 08:41:50;;;;;;;8.20;5.72;;;22.00;55.40;;;;;;6213868;28;20077;-76
2022/06/15 08:45:03;;;;;;;7.50;5.57;;;21.90;55.30;;;;;;6194456;28;20469;-76
2022/06/15 08:48:25;;;;;;;7.95;5.50;;;22.00;55.40;;;;;;6216714;28;20030;-75
2022/06/15 08:51:36;;;;;;;7.32;5.03;;;22.00;55.40;;;;;;6215854;28;20041;-76
2022/06/15 08:54:41;;;;;;;8.30;5.57;;;22.00;55.40;;;;;;6216717;28;20066;-76
2022/06/15 08:57:46;;;;;;;6.93;5.22;;;21.90;55.30;;;;;;6221386;28;20567;-76
2022/06/15 09:00:48;;;;;;;7.50;5.53;;;22.00;55.40;;;;;;6221392;28;20616;-75
2022/06/15 09:04:08;;;;;;;8.15;5.03;;;22.00;55.40;;;;;;6198565;28;20477;-76
2022/06/15 09:07:39;;;;;;;7.22;5.15;;;22.00;55.40;;;;;;6189082;28;20358;-75
2022/06/15 09:11:05;;;;;;;6.82;4.90;;;21.90;55.30;;;;;;6221473;28;20018;-79
2022/06/15 09:14:33;;;;;;;7.47;5.10;;;22.00;55.40;;;;;;6202396;28;20027;-75
2022/06/15 09:17:35;;;;;;;7.22;5.20;;;22.00;55.40;;;;;;6212324;28;20480;-76
2022/06/15 09:20:43;;;;;;;7.30;4.75;;;22.00;55.40;;;;;;6222956;28;20041;-75
2022/06/15 09:23:52;;;;;;;7.60;4.95;;;21.90;55.30;;;;;;6206706;28;20026;-75
2022/06/15 09:26:56;;;;;;;6.13;4.50;;;22.00;55.40;;;;;;6201853;28;20025;-76
2022/06/15 09:30:11;;;;;;;7.20;4.53;;;21.90;55.30;;;;;;6225835;28;20392;-76
2022/06/15 09:33:33;;;;;;;5.60;4.23;;;22.00;55.40;;;;;;6215176;28;20037;-76
2022/06/15 09:36:49;;;;;;;6.20;4.28;;;22.00;55.40;;;;;;6224599;28;20041;-76
2022/06/15 09:39:50;;;;;;;6.45;4.60;;;21.90;55.30;;;;;;6200925;28;20023;-77
2022/06/15 09:43:12;;;;;;;7.18;4.65;;;21.90;55.30;;;;;;6210675;28;20081;-75
2022/06/15 09:46:37;;;;;;;5.43;4.43;;;22.00;55.30;;;;;;6218742;28;20033;-76
2022/06/15 09:50:05;;;;;;;6.13;4.00;;;22.00;55.30;;;;;;6201816;28;20026;-76
2022/06/15 09:53:16;;;;;;;6.95;4.68;;;22.00;55.30;;;;;;6210953;28;20014;-75
2022/06/15 09:56:19;;;;;;;7.38;4.55;;;22.00;55.40;;;;;;6225096;28;20061;-75
2022/06/15 09:59:23;;;;;;;5.28;4.00;;;22.00;55.40;;;;;;6187451;28;20027;-75
2022/06/15 10:02:31;;;;;;;5.50;4.30;;;22.00;55.30;;;;;;6200579;28;20037;-76
2022/06/15 10:05:34;;;;;;;5.40;4.10;;;22.00;55.40;;;;;;6200879;28;20049;-75
2022/06/15 10:08:35;;;;;;;7.15;4.68;;;22.00;55.40;;;;;;6145372;29;20036;-75
2022/06/15 10:11:42;;;;;;;5.80;4.15;;;22.00;55.40;;;;;;6149572;29;20087;-76
2022/06/15 10:14:47;;;;;;;5.97;4.30;;;22.00;55.30;;;;;;6149131;29;20349;-75
2022/06/15 10:17:52;;;;;;;6.13;4.22;;;22.00;55.30;;;;;;6149189;29;20042;-76
2022/06/15 10:20:59;;;;;;;6.28;4.07;;;22.00;55.30;;;;;;6149166;29;20086;-76
2022/06/15 10:24:17;;;;;;;4.57;3.72;;;21.90;55.20;;;;;;6149148;28;20047;-75
2022/06/15 10:27:34;;;;;;;4.90;3.60;;;22.00;55.30;;;;;;6149559;29;20024;-76
2022/06/15 10:30:35;;;;;;;5.75;3.85;;;22.00;55.30;;;;;;6128673;29;20031;-75
2022/06/15 10:33:40;;;;;;;6.15;3.67;;;21.90;55.20;;;;;;6149085;29;20039;-75
2022/06/15 10:36:41;;;;;;;4.53;3.38;;;22.00;55.30;;;;;;6149087;29;20077;-75
2022/06/15 10:39:48;;;;;;;4.00;3.22;;;21.90;55.20;;;;;;6181848;28;20035;-75
2022/06/15 10:43:29;;;;;;;4.30;3.45;;;21.90;55.20;;;;;;6201024;28;20117;-75
2022/06/15 10:46:52;;;;;;;5.47;4.00;;;22.00;55.30;;;;;;6221314;28;20392;-75
2022/06/15 10:50:00;;;;;;;3.63;2.90;;;21.90;55.20;;;;;;6203274;28;20037;-76
2022/06/15 10:53:04;;;;;;;4.97;3.53;;;21.90;55.20;;;;;;6200426;28;20021;-75
2022/06/15 11:03:23;;;;;;;5.50;3.65;;;21.90;55.20;;;;;;6223679;28;20030;-75
2022/06/15 11:06:24;;;;;;;4.97;3.38;;;21.90;55.20;;;;;;6220300;28;20030;-76
2022/06/15 11:09:41;;;;;;;3.78;3.13;;;21.90;55.30;;;;;;6212329;28;20049;-75
2022/06/15 11:13:05;;;;;;;4.85;3.53;;;21.90;55.20;;;;;;6199227;28;20492;-75
2022/06/15 11:19:56;;;;;;;4.32;3.50;;;21.90;55.20;;;;;;6209942;28;20030;-75
2022/06/15 11:23:14;;;;;;;4.90;3.42;;;21.90;55.20;;;;;;6198895;28;20509;-75
2022/06/15 11:29:37;;;;;;;4.13;3.22;;;21.90;55.20;;;;;;6212905;28;20121;-76
2022/06/15 11:33:04;;;;;;;4.70;3.15;;;21.90;55.20;;;;;;6198160;28;20048;-75
2022/06/15 11:36:30;;;;;;;3.42;2.70;;;21.90;55.20;;;;;;6197603;28;20038;-76
2022/06/15 11:39:41;;;;;;;3.72;3.00;;;21.90;55.20;;;;;;6206355;28;20026;-76
2022/06/15 11:42:48;;;;;;;2.95;2.55;;;21.90;55.10;;;;;;6222165;28;20041;-76
2022/06/15 11:45:58;;;;;;;3.95;2.88;;;21.90;55.20;;;;;;6205420;28;20073;-76
2022/06/15 11:49:06;;;;;;;3.90;2.65;;;21.90;55.20;;;;;;6200148;28;20069;-76
2022/06/15 11:52:28;;;;;;;3.60;2.70;;;21.90;55.20;;;;;;6222152;28;20030;-75
2022/06/15 11:55:41;;;;;;;4.00;3.03;;;21.90;55.20;;;;;;6211437;28;20026;-74
2022/06/15 11:59:04;;;;;;;3.25;2.58;;;21.90;55.20;;;;;;6204699;28;20044;-75
2022/06/15 12:02:08;;;;;;;3.65;2.83;;;21.90;55.20;;;;;;6197995;28;20030;-74
2022/06/15 12:05:34;;;;;;;3.78;3.00;;;21.90;55.20;;;;;;6207380;28;20072;-76
2022/06/15 12:08:49;;;;;;;3.22;2.42;;;21.90;55.20;;;;;;6222214;28;20036;-76
2022/06/15 12:15:36;;;;;;;3.03;2.47;;;21.90;55.20;;;;;;6211208;28;20034;-75
2022/06/15 12:18:39;;;;;;;3.30;2.60;;;21.90;55.20;;;;;;6197392;28;20045;-76
2022/06/15 12:22:04;;;;;;;4.30;2.75;;;21.90;55.20;;;;;;6217415;28;20037;-75
2022/06/15 12:25:20;;;;;;;4.05;3.00;;;21.90;55.20;;;;;;6215769;28;20078;-74
2022/06/15 12:28:39;;;;;;;;;;;21.90;55.20;;;;;;6194445;28;20279;-75
2022/06/15 12:31:55;;;;;;;4.97;3.28;;;21.90;55.20;;;;;;6215701;28;20383;-75
2022/06/15 12:35:29;;;;;;;2.92;2.33;;;21.90;55.20;;;;;;6218084;28;20014;-75
2022/06/15 12:39:07;;;;;;;2.95;2.47;;;21.90;55.20;;;;;;6194396;28;20055;-75
2022/06/15 12:42:14;;;;;;;3.55;2.50;;;21.90;55.20;;;;;;6197172;28;20041;-74
2022/06/15 12:45:17;;;;;;;3.33;2.45;;;21.90;55.20;;;;;;6198550;28;20030;-75
2022/06/15 12:48:50;;;;;;;3.25;2.28;;;21.90;55.20;;;;;;6226923;28;20040;-76
2022/06/15 12:52:21;;;;;;;3.28;2.50;;;21.90;55.20;;;;;;6166848;28;20376;-76
2022/06/15 12:55:48;;;;;;;2.80;2.20;;;21.90;55.20;;;;;;6205859;28;20369;-76
2022/06/15 12:59:06;;;;;;;3.60;2.60;;;21.90;55.20;;;;;;6226234;28;20033;-75
2022/06/15 13:02:25;;;;;;;2.90;2.13;;;21.90;55.20;;;;;;6208332;28;20045;-76
2022/06/15 13:05:32;;;;;;;2.95;2.42;;;21.90;55.20;;;;;;6205085;28;20322;-75
2022/06/15 13:08:34;;;;;;;3.83;2.33;;;21.90;55.20;;;;;;6226167;28;20384;-75
2022/06/15 13:12:07;;;;;;;3.63;3.05;;;21.90;55.20;;;;;;6213970;28;20026;-76
2022/06/15 13:15:32;;;;;;;2.65;2.10;;;21.90;55.20;;;;;;6190353;28;20046;-75
2022/06/15 13:18:42;;;;;;;2.65;2.38;;;21.90;55.20;;;;;;6198402;28;20050;-76
2022/06/15 13:22:05;;;;;;;2.90;2.30;;;21.90;55.20;;;;;;6211247;28;20041;-75
2022/06/15 13:25:08;;;;;;;2.28;2.00;;;21.90;55.20;;;;;;6225756;28;20022;-76
2022/06/15 13:28:09;;;;;;;2.65;1.90;;;21.90;55.20;;;;;;6225730;28;20033;-76
2022/06/15 13:31:38;;;;;;;2.83;2.30;;;21.90;55.20;;;;;;6219813;28;20037;-76
2022/06/15 13:34:39;;;;;;;2.22;1.95;;;21.90;55.20;;;;;;6201603;28;20102;-75
2022/06/15 13:38:00;;;;;;;3.25;2.25;;;21.90;55.20;;;;;;6200975;28;20100;-75
2022/06/15 13:41:00;;;;;;;2.38;1.98;;;21.90;55.20;;;;;;6204363;28;20462;-75
2022/06/15 13:44:02;;;;;;;2.22;2.00;;;21.90;55.20;;;;;;6225216;28;20022;-76
2022/06/15 13:47:04;;;;;;;2.10;1.77;;;21.90;55.20;;;;;;6214129;28;20018;-75
2022/06/15 13:50:09;;;;;;;2.97;2.20;;;21.90;55.20;;;;;;6147244;28;20086;-75
2022/06/15 13:53:31;;;;;;;2.80;2.20;;;21.90;55.20;;;;;;6169158;28;20393;-75
2022/06/15 13:56:45;;;;;;;2.25;1.98;;;21.90;55.20;;;;;;6168132;28;20023;-74
2022/06/15 14:00:09;;;;;;;3.67;2.05;;;21.90;55.20;;;;;;6149770;29;20049;-74
2022/06/15 14:03:28;;;;;;;3.30;2.38;;;21.90;55.20;;;;;;6144235;29;20046;-75
2022/06/15 14:06:37;;;;;;;2.00;1.73;;;21.90;55.20;;;;;;6153343;28;20590;-75
2022/06/15 14:09:52;;;;;;;2.78;2.00;;;21.90;55.20;;;;;;6173439;28;20473;-75
2022/06/15 14:13:14;;;;;;;2.23;1.50;;;21.90;55.20;;;;;;6157614;28;20522;-75
2022/06/15 14:16:28;;;;;;;2.22;1.95;;;21.90;55.20;;;;;;6149788;28;20707;-75
2022/06/15 14:19:38;;;;;;;2.08;1.50;;;21.90;55.20;;;;;;6176272;28;20023;-75
2022/06/15 14:22:57;;;;;;;2.65;1.88;;;21.90;55.20;;;;;;6213362;28;20144;-75
2022/06/15 14:25:58;;;;;;;2.50;1.92;;;21.90;55.20;;;;;;6199278;28;20109;-76
2022/06/15 14:29:04;;;;;;;2.50;1.98;;;21.90;55.20;;;;;;6221308;28;20396;-76
2022/06/15 14:32:06;;;;;;;2.42;1.88;;;21.90;55.20;;;;;;6218654;28;20497;-76
2022/06/15 14:35:14;;;;;;;2.13;1.83;;;21.90;55.20;;;;;;6199976;28;20504;-75
2022/06/15 14:38:20;;;;;;;2.15;1.75;;;21.90;55.20;;;;;;6198223;28;20058;-76
2022/06/15 14:41:28;;;;;;;2.42;1.98;;;21.90;55.20;;;;;;6199546;28;20452;-76
2022/06/15 14:44:29;;;;;;;2.67;1.83;;;21.90;55.20;;;;;;6181042;28;20026;-75
2022/06/15 14:47:29;;;;;;;1.73;1.58;;;21.90;55.20;;;;;;6206236;28;20443;-76
2022/06/15 14:50:32;;;;;;;2.65;1.80;;;21.90;55.20;;;;;;6223715;28;20108;-75
2022/06/15 14:53:34;;;;;;;1.80;1.50;;;21.90;55.20;;;;;;6206546;28;20018;-76
2022/06/15 14:56:47;;;;;;;1.65;1.50;;;21.90;55.20;;;;;;6224573;28;20067;-76
2022/06/15 14:59:54;;;;;;;2.92;1.80;;;21.90;55.20;;;;;;6182531;28;20045;-75
2022/06/15 15:02:56;;;;;;;1.73;1.60;;;21.90;55.20;;;;;;6198612;28;20475;-75
2022/06/15 15:06:01;;;;;;;2.78;1.88;;;21.90;55.20;;;;;;6198465;28;20038;-76
2022/06/15 15:09:10;;;;;;;1.58;1.48;;;21.90;55.20;;;;;;6196928;28;20037;-75
2022/06/15 15:12:10;;;;;;;1.70;1.52;;;21.90;55.20;;;;;;6223653;28;20022;-76
2022/06/15 15:15:12;;;;;;;1.95;1.70;;;21.90;55.20;;;;;;6223692;28;20048;-76
2022/06/15 15:18:17;;;;;;;1.58;1.40;;;21.90;55.20;;;;;;6215972;28;20034;-75
2022/06/15 15:21:29;;;;;;;1.58;1.35;;;21.90;55.20;;;;;;6199626;28;20030;-76
2022/06/15 15:24:36;;;;;;;1.63;1.48;;;21.90;55.20;;;;;;6217297;28;20025;-75
2022/06/15 15:35:02;;;;;;;1.70;1.52;;;21.90;55.20;;;;;;6199033;28;20022;-75
2022/06/15 15:38:18;;;;;;;1.38;1.20;;;21.90;55.60;;;;;;6203186;28;20053;-76
2022/06/15 15:41:18;;;;;;;;;;;21.90;55.20;;;;;;6223790;28;20037;-75
2022/06/15 15:44:19;;;;;;;2.05;1.65;;;21.90;55.20;;;;;;6209295;28;19905;-76
2022/06/15 15:47:20;;;;;;;1.40;1.20;;;21.90;55.20;;;;;;6199202;28;20135;-75
2022/06/15 15:50:20;;;;;;;1.60;1.40;;;21.90;55.20;;;;;;6220237;28;20026;-76
2022/06/15 15:53:22;;;;;;;2.00;1.38;;;21.90;55.20;;;;;;6218494;28;20053;-75
2022/06/15 15:56:23;;;;;;;1.58;1.48;;;21.90;55.20;;;;;;6198722;28;20430;-75
2022/06/15 15:59:25;;;;;;;1.58;1.45;;;21.90;55.20;;;;;;6198374;28;20029;-76
2022/06/15 16:02:31;;;;;;;1.20;1.10;;;21.90;55.20;;;;;;6196871;28;20042;-74
2022/06/15 16:05:32;;;;;;;1.85;1.50;;;21.90;55.20;;;;;;6219021;28;20022;-75
2022/06/15 16:08:32;;;;;;;1.58;1.40;;;21.80;55.20;;;;;;6219086;28;20019;-76
2022/06/15 16:11:33;;;;;;;1.92;1.48;;;21.90;55.20;;;;;;6198098;28;20437;-76
2022/06/15 16:14:34;;;;;;;1.98;1.50;;;21.80;55.20;;;;;;6209263;28;20076;-76
2022/06/15 16:17:35;;;;;;;3.25;1.58;;;21.90;55.20;;;;;;6220075;28;20037;-75
2022/06/15 16:20:37;;;;;;;1.80;1.45;;;21.80;55.20;;;;;;6199449;28;20030;-75
2022/06/15 16:23:40;;;;;;;1.73;1.50;;;21.90;55.20;;;;;;6195940;28;20042;-75
2022/06/15 16:26:41;;;;;;;1.77;1.40;;;21.90;55.20;;;;;;6203065;28;20473;-75
2022/06/15 16:29:42;;;;;;;1.73;1.13;;;21.80;55.20;;;;;;6209620;28;20022;-76
2022/06/15 16:32:43;;;;;;;2.47;1.58;;;21.90;55.20;;;;;;6192645;28;20390;-75
2022/06/15 16:35:44;;;;;;;1.30;1.15;;;21.90;55.20;;;;;;6193146;28;20030;-75
2022/06/15 16:38:45;;;;;;;1.65;1.15;;;21.90;55.20;;;;;;6197441;28;20090;-75
2022/06/15 16:41:47;;;;;;;1.20;1.10;;;21.90;55.20;;;;;;6215966;28;20045;-75